Boston, Massachusetts
Traffic Map
Current Weather Conditions
Boston, Massachusetts
Scattered Clouds
Scattered Clouds

Feels Like: -4°
Wind Chill: -4° Ceiling: Unl
Heat Index: Visibility: 10mi
Dew Point: -3° Wind: 8mph
Humidity: 79% Direction: 350° (N)
Pressure: 30.62in Gusts: 0mph
Raw Report DataKBOS 180854Z 35007KT 10SM SCT025 00/M03 A3062 RMK AO2 SLP368 T00001033 55001
Traffic Incident Summary
Active as of:
Severity:
Category:
InformationThere was an issue retrieving the traffic information for this location. Please try a different location or try again shortly.
Advertisements
At Last! Intellicast now available for iPhone and Android